createdAt,value
2023-02-28T00:01:40.717Z,66.94
2023-02-28T00:04:12.696Z,66.66
2023-02-28T00:06:44.913Z,67.23
2023-02-28T00:09:16.859Z,66.56
2023-02-28T00:11:48.853Z,66.63
2023-02-28T00:14:20.932Z,65.30
2023-02-28T00:16:52.969Z,65.71
2023-02-28T00:19:25.159Z,65.05
2023-02-28T00:21:57.264Z,65.35
2023-02-28T00:24:29.196Z,65.08
2023-02-28T00:27:01.667Z,65.55
2023-02-28T00:29:33.661Z,66.41
2023-02-28T00:32:12.452Z,66.04
2023-02-28T00:34:48.374Z,66.11
2023-02-28T00:40:12.648Z,66.17
2023-02-28T00:42:49.984Z,66.98
2023-02-28T00:45:22.032Z,66.06
2023-02-28T00:47:54.031Z,66.57
2023-02-28T00:50:26.078Z,68.01
2023-02-28T00:53:00.798Z,66.85
2023-02-28T00:55:32.861Z,66.72
2023-02-28T00:58:04.846Z,66.71
2023-02-28T01:00:36.876Z,66.86
2023-02-28T01:03:08.840Z,67.58
2023-02-28T01:05:42.089Z,67.53
2023-02-28T01:08:15.448Z,67.83
2023-02-28T01:11:00.766Z,68.61
2023-02-28T01:13:32.767Z,69.03
2023-02-28T01:16:05.281Z,67.88
2023-02-28T01:18:38.268Z,68.42
2023-02-28T01:21:16.408Z,68.76
2023-02-28T01:23:49.290Z,69.11
2023-02-28T01:26:23.614Z,69.31
2023-02-28T01:28:56.349Z,68.99
2023-02-28T01:31:28.749Z,69.05
2023-02-28T01:34:00.961Z,68.22
2023-02-28T01:36:32.972Z,67.72
2023-02-28T01:39:05.423Z,67.40
2023-02-28T01:41:37.681Z,67.33
2023-02-28T01:44:59.306Z,67.42
2023-02-28T01:47:40.247Z,65.75
2023-02-28T01:50:24.437Z,67.46
2023-02-28T01:53:01.347Z,67.87
2023-02-28T01:55:33.921Z,67.90
2023-02-28T01:58:08.265Z,67.16
2023-02-28T02:00:41.851Z,67.12
2023-02-28T02:03:20.075Z,66.79
2023-02-28T02:05:52.182Z,66.95
2023-02-28T02:08:30.310Z,66.60
2023-02-28T02:11:04.895Z,66.58
2023-02-28T02:14:01.546Z,66.11
2023-02-28T02:16:44.981Z,66.62
2023-02-28T02:20:00.958Z,64.99
2023-02-28T02:23:13.579Z,65.24
2023-02-28T02:26:22.784Z,65.57
2023-02-28T02:29:35.512Z,66.26
2023-02-28T02:33:05.205Z,65.22
2023-02-28T02:35:55.574Z,65.38
2023-02-28T02:38:41.633Z,64.41
2023-02-28T02:41:53.310Z,65.79
2023-02-28T02:44:40.378Z,65.36
2023-02-28T02:47:18.863Z,65.79
2023-02-28T02:49:58.782Z,66.03
2023-02-28T02:52:43.586Z,66.06
2023-02-28T02:55:19.225Z,66.43
2023-02-28T02:58:15.547Z,66.27
2023-02-28T03:00:54.737Z,65.83
2023-02-28T03:03:29.997Z,66.70
2023-02-28T03:06:04.226Z,67.59
2023-02-28T03:08:39.124Z,67.61
2023-02-28T03:11:18.156Z,67.24
2023-02-28T03:14:41.273Z,67.06
2023-02-28T03:17:28.284Z,67.33
2023-02-28T03:20:18.499Z,68.37
2023-02-28T03:23:24.160Z,67.22
2023-02-28T03:26:15.186Z,67.73
2023-02-28T03:29:04.832Z,67.85
2023-02-28T03:32:12.513Z,67.46
2023-02-28T03:35:05.952Z,68.25
2023-02-28T03:37:47.716Z,67.85
2023-02-28T03:40:24.610Z,68.52
2023-02-28T03:43:08.982Z,68.93
2023-02-28T03:45:43.071Z,68.47
2023-02-28T03:48:23.129Z,68.73
2023-02-28T03:50:59.590Z,68.81
2023-02-28T03:53:43.744Z,68.91
2023-02-28T03:56:45.138Z,69.42
2023-02-28T03:59:28.819Z,69.19
2023-02-28T04:02:01.127Z,69.52
2023-02-28T04:04:33.424Z,69.90
2023-02-28T04:07:10.234Z,69.57
2023-02-28T04:09:44.760Z,70.22
2023-02-28T04:12:16.880Z,70.47
2023-02-28T04:14:48.871Z,70.84
2023-02-28T04:17:21.145Z,71.68
2023-02-28T04:19:53.103Z,71.97
2023-02-28T04:22:29.160Z,71.68
2023-02-28T04:25:01.101Z,71.62
2023-02-28T04:27:33.061Z,71.01
2023-02-28T04:30:12.263Z,72.23
2023-02-28T04:32:44.320Z,72.47
2023-02-28T04:35:18.042Z,71.70
2023-02-28T04:37:51.470Z,71.37
2023-02-28T04:40:23.474Z,71.63
2023-02-28T04:42:55.500Z,71.28
2023-02-28T04:45:27.493Z,71.12
2023-02-28T04:47:59.768Z,70.96
2023-02-28T04:50:33.557Z,72.18
2023-02-28T04:53:05.694Z,71.46
2023-02-28T04:55:37.598Z,72.87
2023-02-28T04:58:10.099Z,72.23
2023-02-28T05:00:42.154Z,72.82
2023-02-28T05:03:14.143Z,72.83
2023-02-28T05:05:46.086Z,73.53
2023-02-28T05:08:18.036Z,72.79
2023-02-28T05:10:50.012Z,72.04
2023-02-28T05:13:24.935Z,72.45
2023-02-28T05:15:57.458Z,73.55
2023-02-28T05:18:30.303Z,73.76
2023-02-28T05:21:04.668Z,74.43
2023-02-28T05:23:36.849Z,74.89
2023-02-28T05:26:09.212Z,75.05
2023-02-28T05:28:41.183Z,75.76
2023-02-28T05:31:13.670Z,76.11
2023-02-28T05:33:45.837Z,76.02
2023-02-28T05:36:18.122Z,75.68
2023-02-28T05:38:51.559Z,75.63
2023-02-28T05:41:29.545Z,76.27
2023-02-28T05:44:02.403Z,76.60
2023-02-28T05:46:34.485Z,77.39
2023-02-28T05:49:06.623Z,76.78
2023-02-28T05:51:43.053Z,77.18
2023-02-28T05:54:17.053Z,77.26
2023-02-28T05:56:49.034Z,77.76
2023-02-28T05:59:20.982Z,78.07
2023-02-28T06:01:54.258Z,79.32
2023-02-28T06:04:31.986Z,79.10
2023-02-28T06:07:04.449Z,80.19
2023-02-28T06:09:37.179Z,80.94
2023-02-28T06:12:14.495Z,81.45
2023-02-28T06:14:46.861Z,81.47
2023-02-28T06:17:19.172Z,82.59
2023-02-28T06:19:51.237Z,81.93
2023-02-28T06:22:23.441Z,82.38
2023-02-28T06:24:56.194Z,83.67
2023-02-28T06:27:28.183Z,83.91
2023-02-28T06:30:00.544Z,83.00
2023-02-28T06:32:32.605Z,82.71
2023-02-28T06:35:05.615Z,83.07
2023-02-28T06:37:39.126Z,83.47
2023-02-28T06:40:14.107Z,83.32
2023-02-28T06:42:46.087Z,83.58
2023-02-28T06:45:18.279Z,84.44
2023-02-28T06:47:53.140Z,83.64
2023-02-28T06:50:25.099Z,84.19
2023-02-28T06:52:57.141Z,84.22
2023-02-28T06:55:30.759Z,84.70
2023-02-28T06:58:02.848Z,85.14
2023-02-28T07:00:35.290Z,84.61
2023-02-28T07:03:07.241Z,84.07
2023-02-28T07:05:40.556Z,84.59
2023-02-28T07:08:12.670Z,84.17
2023-02-28T07:10:45.170Z,84.32
2023-02-28T07:13:17.169Z,84.15
2023-02-28T07:16:05.791Z,84.25
2023-02-28T07:18:38.686Z,83.11
2023-02-28T07:21:12.442Z,82.75
2023-02-28T07:23:44.506Z,82.66
2023-02-28T07:26:20.409Z,82.49
2023-02-28T07:28:52.425Z,81.90
2023-02-28T07:31:25.134Z,81.87
2023-02-28T07:33:57.536Z,82.22
2023-02-28T07:36:29.607Z,81.69
2023-02-28T07:39:01.650Z,80.87
2023-02-28T07:41:35.157Z,79.58
2023-02-28T07:44:07.195Z,80.61
2023-02-28T07:46:39.568Z,79.27
2023-02-28T07:49:11.634Z,79.23
2023-02-28T07:51:43.824Z,79.10
2023-02-28T07:54:15.771Z,77.75
2023-02-28T07:56:47.743Z,77.16
2023-02-28T07:59:19.750Z,76.10
2023-02-28T08:01:52.408Z,76.11
2023-02-28T08:04:24.410Z,75.13
2023-02-28T08:06:57.454Z,73.34
2023-02-28T08:09:30.954Z,72.68
2023-02-28T08:12:02.929Z,71.41
2023-02-28T08:14:35.641Z,69.65
2023-02-28T08:17:07.969Z,66.91
2023-02-28T08:19:40.242Z,64.71
2023-02-28T08:22:15.100Z,65.83
2023-02-28T08:24:47.193Z,63.31
2023-02-28T08:27:20.020Z,59.65
2023-02-28T08:29:52.068Z,57.84
2023-02-28T08:32:29.713Z,60.63
2023-02-28T08:35:02.916Z,61.17
2023-02-28T08:37:34.965Z,58.67
2023-02-28T08:40:08.216Z,57.39
2023-02-28T08:42:40.248Z,58.71
2023-02-28T08:45:13.598Z,60.91
2023-02-28T08:47:45.561Z,61.52
2023-02-28T08:50:17.633Z,60.74
2023-02-28T08:52:49.790Z,59.52
2023-02-28T08:55:21.766Z,60.01
2023-02-28T08:57:54.686Z,55.82
2023-02-28T09:00:26.726Z,56.61
2023-02-28T09:02:58.876Z,56.00
2023-02-28T09:05:31.045Z,55.73
2023-02-28T09:08:03.038Z,56.62
2023-02-28T09:10:36.071Z,56.55
2023-02-28T09:13:08.232Z,57.01
2023-02-28T09:15:40.710Z,53.69
2023-02-28T09:18:12.961Z,51.87
2023-02-28T09:20:45.680Z,50.16
2023-02-28T09:23:18.191Z,49.60
2023-02-28T09:25:55.647Z,50.09
2023-02-28T09:28:28.109Z,49.66
2023-02-28T09:31:00.321Z,49.07
2023-02-28T09:33:32.357Z,49.86
2023-02-28T09:36:05.091Z,48.88
2023-02-28T09:38:37.282Z,47.61
2023-02-28T09:41:16.250Z,47.19
2023-02-28T09:43:57.141Z,46.92
2023-02-28T09:46:40.896Z,46.75
2023-02-28T09:49:19.833Z,45.41
2023-02-28T09:51:59.820Z,47.01
2023-02-28T09:54:33.964Z,46.09
2023-02-28T09:57:08.169Z,45.73
2023-02-28T10:00:13.272Z,44.03
2023-02-28T10:03:19.987Z,44.29
2023-02-28T10:06:04.695Z,43.72
2023-02-28T10:09:14.516Z,43.01
2023-02-28T10:14:23.295Z,41.02
2023-02-28T10:17:03.278Z,41.34
2023-02-28T10:19:46.017Z,41.21
2023-02-28T10:22:31.122Z,41.14
2023-02-28T10:25:19.512Z,41.57
2023-02-28T10:28:02.248Z,41.74
2023-02-28T10:30:34.344Z,40.69
2023-02-28T10:33:06.423Z,39.98
2023-02-28T10:35:38.604Z,39.48
2023-02-28T10:38:24.877Z,38.25
2023-02-28T10:41:35.804Z,30.54
2023-02-28T10:44:34.480Z,24.99
2023-02-28T10:47:06.548Z,21.55
2023-02-28T10:49:50.622Z,20.46
2023-02-28T10:52:40.674Z,19.41
2023-02-28T10:55:28.723Z,18.35
2023-02-28T10:58:01.583Z,20.31
2023-02-28T11:00:36.444Z,21.67
2023-02-28T11:03:37.256Z,24.30
2023-02-28T11:06:35.121Z,27.45
2023-02-28T11:09:26.819Z,29.23
2023-02-28T11:11:59.067Z,32.27
2023-02-28T11:14:44.466Z,32.61
2023-02-28T11:17:28.558Z,34.17
2023-02-28T11:20:11.624Z,34.30
2023-02-28T11:22:46.559Z,35.41
2023-02-28T11:25:27.500Z,35.38
2023-02-28T11:28:06.139Z,35.30
2023-02-28T11:30:43.134Z,36.68
2023-02-28T11:33:30.824Z,36.34
2023-02-28T11:36:14.739Z,36.79
2023-02-28T11:38:47.930Z,36.84
2023-02-28T11:42:15.569Z,37.25
2023-02-28T11:45:38.887Z,37.66
2023-02-28T11:48:55.167Z,37.54
2023-02-28T11:51:36.983Z,38.16
2023-02-28T11:54:55.136Z,36.96
2023-02-28T11:57:55.566Z,37.27
2023-02-28T12:00:41.621Z,37.13
2023-02-28T12:03:57.585Z,37.05
2023-02-28T12:06:38.964Z,36.73
2023-02-28T12:09:29.692Z,36.93
2023-02-28T12:12:51.795Z,36.67
2023-02-28T12:15:42.962Z,36.72
2023-02-28T12:18:55.261Z,38.38
2023-02-28T12:21:52.205Z,37.95
2023-02-28T12:25:01.311Z,37.80
2023-02-28T12:27:39.314Z,37.24
2023-02-28T12:30:35.441Z,35.78
2023-02-28T12:33:10.923Z,36.80
2023-02-28T12:35:56.902Z,36.31
2023-02-28T12:38:36.321Z,35.79
2023-02-28T12:41:35.000Z,35.75
2023-02-28T12:44:22.709Z,35.95
2023-02-28T12:47:00.848Z,36.64
2023-02-28T12:49:50.747Z,37.17
2023-02-28T12:52:54.760Z,37.25
2023-02-28T12:56:11.402Z,37.76
2023-02-28T12:58:52.601Z,38.33
2023-02-28T13:01:29.264Z,35.15
2023-02-28T13:04:35.274Z,34.52
2023-02-28T13:07:42.294Z,35.36
2023-02-28T13:10:17.286Z,35.56
2023-02-28T13:12:55.101Z,34.29
2023-02-28T13:15:29.824Z,34.31
2023-02-28T13:18:01.978Z,35.07
2023-02-28T13:20:48.857Z,35.13
2023-02-28T13:23:48.152Z,34.25
2023-02-28T13:26:20.241Z,35.59
2023-02-28T13:29:12.025Z,35.76
2023-02-28T13:32:09.633Z,36.37
2023-02-28T13:34:53.765Z,35.50
2023-02-28T13:37:25.809Z,35.15
2023-02-28T13:40:10.966Z,36.00
2023-02-28T13:42:50.822Z,35.93
2023-02-28T13:45:28.932Z,35.64
2023-02-28T13:48:26.743Z,36.85
2023-02-28T13:50:59.237Z,36.31
2023-02-28T13:53:53.538Z,36.66
2023-02-28T13:57:14.594Z,36.04
2023-02-28T14:00:22.849Z,36.32
2023-02-28T14:03:35.589Z,36.89
2023-02-28T14:06:11.602Z,36.49
2023-02-28T14:09:00.316Z,36.58
2023-02-28T14:11:39.322Z,35.72
2023-02-28T14:14:37.227Z,36.89
2023-02-28T14:17:18.380Z,35.70
2023-02-28T14:19:51.373Z,37.03
2023-02-28T14:22:51.409Z,35.30
2023-02-28T14:25:46.877Z,35.00
2023-02-28T14:29:01.545Z,35.81
2023-02-28T14:31:45.603Z,35.85
2023-02-28T14:34:28.588Z,36.31
2023-02-28T14:37:03.838Z,35.78
2023-02-28T14:39:37.964Z,34.71
2023-02-28T14:42:45.003Z,35.23
2023-02-28T14:45:24.273Z,34.99
2023-02-28T14:47:57.703Z,35.77
2023-02-28T14:50:36.852Z,36.50
2023-02-28T14:53:19.960Z,37.22
2023-02-28T14:55:53.926Z,37.16
2023-02-28T14:58:31.635Z,37.11
2023-02-28T15:01:05.245Z,37.10
2023-02-28T15:03:40.450Z,37.12
2023-02-28T15:06:18.598Z,37.80
2023-02-28T15:09:10.249Z,38.00
2023-02-28T15:11:43.858Z,37.68
2023-02-28T15:14:22.935Z,37.30
2023-02-28T15:17:09.459Z,36.78
2023-02-28T15:19:51.533Z,37.78
2023-02-28T15:22:37.390Z,38.16
2023-02-28T15:25:15.134Z,37.79
2023-02-28T15:27:52.506Z,38.09
2023-02-28T15:30:31.270Z,38.22
2023-02-28T15:33:12.564Z,38.42
2023-02-28T15:35:49.066Z,37.26
2023-02-28T15:38:28.925Z,36.81
2023-02-28T15:41:00.953Z,37.62
2023-02-28T15:43:38.538Z,36.94
2023-02-28T15:46:14.448Z,37.32
2023-02-28T15:48:55.769Z,38.21
2023-02-28T15:51:37.329Z,37.79
2023-02-28T15:54:16.639Z,38.31
2023-02-28T15:56:54.381Z,38.41
2023-02-28T15:59:30.126Z,37.52
2023-02-28T16:02:23.188Z,38.60
2023-02-28T16:05:28.838Z,38.39
2023-02-28T16:08:14.689Z,38.80
2023-02-28T16:10:46.891Z,38.89
2023-02-28T16:13:19.046Z,38.82
2023-02-28T16:15:52.471Z,38.50
2023-02-28T16:18:25.532Z,38.70
2023-02-28T16:21:00.845Z,39.38
2023-02-28T16:23:32.790Z,39.18
2023-02-28T16:26:06.582Z,40.83
2023-02-28T16:28:43.011Z,40.71
2023-02-28T16:31:17.660Z,41.24
2023-02-28T16:33:50.012Z,40.63
2023-02-28T16:36:27.504Z,40.91
2023-02-28T16:38:59.593Z,40.73
2023-02-28T16:41:32.251Z,40.89
2023-02-28T16:44:15.600Z,42.04
2023-02-28T16:46:47.865Z,41.93
2023-02-28T16:49:19.966Z,42.03
2023-02-28T16:51:52.014Z,41.64
2023-02-28T16:54:24.106Z,41.96
2023-02-28T16:56:56.161Z,41.59
2023-02-28T16:59:29.642Z,43.13
2023-02-28T17:02:20.005Z,42.79
2023-02-28T17:04:52.063Z,43.55
2023-02-28T17:07:24.084Z,43.22
2023-02-28T17:09:56.181Z,43.20
2023-02-28T17:12:28.529Z,43.79
2023-02-28T17:15:00.663Z,44.04
2023-02-28T17:17:33.160Z,43.73
2023-02-28T17:20:06.981Z,43.29
2023-02-28T17:22:39.916Z,44.05
2023-02-28T17:25:12.249Z,45.51
2023-02-28T17:27:44.574Z,45.88
2023-02-28T17:30:19.538Z,46.05
2023-02-28T17:32:51.870Z,45.98
2023-02-28T17:35:25.477Z,46.71
2023-02-28T17:37:57.701Z,46.59
2023-02-28T17:40:29.913Z,45.47
2023-02-28T17:43:02.381Z,46.08
2023-02-28T17:45:36.753Z,47.06
2023-02-28T17:48:12.372Z,47.75
2023-02-28T17:50:44.561Z,49.47
2023-02-28T17:53:16.640Z,48.69
2023-02-28T17:55:48.609Z,48.65
2023-02-28T17:58:20.642Z,49.35
2023-02-28T18:00:55.552Z,50.02
2023-02-28T18:03:29.244Z,49.60
2023-02-28T18:06:01.990Z,50.17
2023-02-28T18:08:36.379Z,50.75
2023-02-28T18:11:18.181Z,50.90
2023-02-28T18:13:54.130Z,50.48
2023-02-28T18:16:27.689Z,50.68
2023-02-28T18:18:59.918Z,50.37
2023-02-28T18:21:32.265Z,51.31
2023-02-28T18:24:04.967Z,50.73
2023-02-28T18:26:38.788Z,51.22
2023-02-28T18:29:20.272Z,52.60
2023-02-28T18:31:54.010Z,52.54
2023-02-28T18:34:26.685Z,52.58
2023-02-28T18:36:58.733Z,51.97
2023-02-28T18:39:31.657Z,51.11
2023-02-28T18:42:03.948Z,51.67
2023-02-28T18:44:38.200Z,52.73
2023-02-28T18:47:11.096Z,53.29
2023-02-28T18:49:43.124Z,53.37
2023-02-28T18:52:16.481Z,53.56
2023-02-28T18:54:48.731Z,55.79
2023-02-28T18:57:20.767Z,54.55
2023-02-28T18:59:52.960Z,54.68
2023-02-28T19:02:25.086Z,54.31
2023-02-28T19:04:57.260Z,54.55
2023-02-28T19:07:29.337Z,54.75
2023-02-28T19:10:01.540Z,54.74
2023-02-28T19:12:38.111Z,55.17
2023-02-28T19:15:11.993Z,56.12
2023-02-28T19:17:44.330Z,56.23
2023-02-28T19:20:17.102Z,56.81
2023-02-28T19:22:49.182Z,57.56
2023-02-28T19:25:25.250Z,56.78
2023-02-28T19:28:00.693Z,57.40
2023-02-28T19:30:32.852Z,56.98
2023-02-28T19:33:05.324Z,57.52
2023-02-28T19:35:40.441Z,57.15
2023-02-28T19:38:13.119Z,55.93
2023-02-28T19:40:49.416Z,58.00
2023-02-28T19:43:21.674Z,59.19
2023-02-28T19:45:53.726Z,59.20
2023-02-28T19:48:28.133Z,58.71
2023-02-28T19:51:12.903Z,59.33
2023-02-28T19:53:45.122Z,60.06
2023-02-28T19:56:17.346Z,58.56
2023-02-28T19:58:49.664Z,60.27
2023-02-28T20:01:21.932Z,60.11
2023-02-28T20:03:53.932Z,60.08
2023-02-28T20:06:26.109Z,61.06
2023-02-28T20:08:58.381Z,62.06
2023-02-28T20:11:30.898Z,61.94
2023-02-28T20:14:05.472Z,61.44
2023-02-28T20:16:38.018Z,61.42
2023-02-28T20:19:10.334Z,61.19
2023-02-28T20:21:44.147Z,60.71
2023-02-28T20:24:16.584Z,60.84
2023-02-28T20:26:48.923Z,61.25
2023-02-28T20:29:21.181Z,61.88
2023-02-28T20:31:53.728Z,62.37
2023-02-28T20:34:25.873Z,62.44
2023-02-28T20:36:58.940Z,63.00
2023-02-28T20:39:31.314Z,63.57
2023-02-28T20:42:03.501Z,63.44
2023-02-28T20:44:35.775Z,63.32
2023-02-28T20:47:07.977Z,62.49
2023-02-28T20:49:39.971Z,62.37
2023-02-28T20:52:12.047Z,63.16
2023-02-28T20:54:44.509Z,63.62
2023-02-28T20:57:16.538Z,63.47
2023-02-28T20:59:51.318Z,63.38
2023-02-28T21:02:23.544Z,63.49
2023-02-28T21:04:55.692Z,63.02
2023-02-28T21:07:30.883Z,63.21
2023-02-28T21:10:03.301Z,64.71
2023-02-28T21:12:35.415Z,65.45
2023-02-28T21:15:08.490Z,65.12
2023-02-28T21:17:40.470Z,65.07
2023-02-28T21:20:12.729Z,65.42
2023-02-28T21:22:45.117Z,65.98
2023-02-28T21:25:17.305Z,65.97
2023-02-28T21:27:49.365Z,64.94
2023-02-28T21:30:22.548Z,64.51
2023-02-28T21:32:54.592Z,64.30
2023-02-28T21:35:27.089Z,65.24
2023-02-28T21:38:01.548Z,65.17
2023-02-28T21:40:34.421Z,66.06
2023-02-28T21:43:06.891Z,65.87
2023-02-28T21:45:39.087Z,65.45
2023-02-28T21:48:11.151Z,66.71
2023-02-28T21:50:43.269Z,66.76
2023-02-28T21:53:15.576Z,67.08
2023-02-28T21:55:47.683Z,67.29
2023-02-28T21:58:19.719Z,67.76
2023-02-28T22:00:51.819Z,67.42
2023-02-28T22:03:23.875Z,67.75
2023-02-28T22:05:55.976Z,68.76
2023-02-28T22:08:28.362Z,68.23
2023-02-28T22:11:03.734Z,68.22
2023-02-28T22:13:37.633Z,67.37
2023-02-28T22:16:13.831Z,67.62
2023-02-28T22:18:46.991Z,67.64
2023-02-28T22:21:20.115Z,68.53
2023-02-28T22:23:52.490Z,68.69
2023-02-28T22:26:24.681Z,69.70
2023-02-28T22:28:57.077Z,69.06
2023-02-28T22:31:32.609Z,68.35
2023-02-28T22:34:08.833Z,69.02
2023-02-28T22:36:43.262Z,68.69
2023-02-28T22:39:15.372Z,69.74
2023-02-28T22:41:47.468Z,70.08
2023-02-28T22:44:19.533Z,70.40
2023-02-28T22:46:55.275Z,70.54
2023-02-28T22:49:27.399Z,70.24
2023-02-28T22:51:59.411Z,70.61
2023-02-28T22:54:31.524Z,70.56
2023-02-28T22:57:06.580Z,70.66
2023-02-28T22:59:38.724Z,71.06
2023-02-28T23:02:10.805Z,70.13
2023-02-28T23:04:46.691Z,70.53
2023-02-28T23:07:18.685Z,70.65
2023-02-28T23:09:51.325Z,70.79
2023-02-28T23:12:24.383Z,70.73
2023-02-28T23:14:57.563Z,70.39
2023-02-28T23:17:32.359Z,71.00
2023-02-28T23:20:04.860Z,70.89
2023-02-28T23:22:36.928Z,71.17
2023-02-28T23:25:09.238Z,71.53
2023-02-28T23:27:41.851Z,71.18
2023-02-28T23:30:17.995Z,71.01
2023-02-28T23:32:50.929Z,71.58
2023-02-28T23:35:23.069Z,71.66
2023-02-28T23:37:58.424Z,71.43
2023-02-28T23:40:30.520Z,72.10
2023-02-28T23:43:02.880Z,71.78
2023-02-28T23:45:35.079Z,72.12
2023-02-28T23:48:07.388Z,72.31
2023-02-28T23:50:39.511Z,72.02
2023-02-28T23:53:11.521Z,72.49
2023-02-28T23:55:47.803Z,72.57
2023-02-28T23:58:19.815Z,72.52
